Time;durP1;ratioP1;P1;durP2;ratioP2;P2;SDS_P1;SDS_P2;PMS_P1;PMS_P2;Temp;Humidity;BMP_temperature;BMP_pressure;BME280_temperature;BME280_humidity;BME280_pressure;Samples;Min_cycle;Max_cycle;Signal;HPM_P1;HPM_P2
2023/12/11 00:00:32;;;;;;;10.98;4.93;;;24.00;99.90;;;;;;4964169;28;20110;-44
2023/12/11 00:02:59;;;;;;;14.10;5.28;;;24.00;99.90;;;;;;4975205;28;20050;-45
2023/12/11 00:05:24;;;;;;;12.32;5.13;;;23.90;99.90;;;;;;4971481;28;20026;-44
2023/12/11 00:07:50;;;;;;;9.35;4.82;;;24.00;99.90;;;;;;4973477;28;20019;-45
2023/12/11 00:10:16;;;;;;;9.73;5.32;;;24.00;99.90;;;;;;4967676;28;20037;-45
2023/12/11 00:12:42;;;;;;;10.18;4.82;;;24.00;99.90;;;;;;4968834;28;20101;-45
2023/12/11 00:15:10;;;;;;;8.73;4.90;;;23.90;99.90;;;;;;4963850;28;20031;-45
2023/12/11 00:17:36;;;;;;;14.93;5.93;;;23.90;99.90;;;;;;4961228;28;20078;-45
2023/12/11 00:20:02;;;;;;;23.08;5.65;;;23.90;99.90;;;;;;4974959;28;20041;-46
2023/12/11 00:22:28;;;;;;;10.30;4.45;;;23.90;99.90;;;;;;4971828;28;20105;-45
2023/12/11 00:24:54;;;;;;;10.85;5.65;;;23.90;99.90;;;;;;4971385;28;20074;-45
2023/12/11 00:27:19;;;;;;;7.78;5.10;;;23.90;99.90;;;;;;4967286;28;20061;-45
2023/12/11 00:29:45;;;;;;;12.63;4.95;;;23.90;99.90;;;;;;4968891;28;20551;-44
2023/12/11 00:32:11;;;;;;;13.77;5.30;;;23.90;99.90;;;;;;4963293;28;20474;-46
2023/12/11 00:34:37;;;;;;;13.55;4.75;;;23.90;99.90;;;;;;4972946;28;20089;-48
2023/12/11 00:37:03;;;;;;;12.43;4.78;;;23.90;99.90;;;;;;4963885;28;20031;-46
2023/12/11 00:39:28;;;;;;;9.57;4.50;;;23.90;99.90;;;;;;4966539;28;20023;-46
2023/12/11 00:41:54;;;;;;;9.35;4.93;;;23.90;99.90;;;;;;4959530;28;20031;-46
2023/12/11 00:44:20;;;;;;;11.63;4.95;;;23.90;99.90;;;;;;4961934;28;20375;-45
2023/12/11 00:46:46;;;;;;;6.68;4.00;;;23.90;99.90;;;;;;4959968;28;20027;-45
2023/12/11 00:49:12;;;;;;;7.53;4.45;;;23.90;99.90;;;;;;4966066;28;20023;-44
2023/12/11 00:51:38;;;;;;;8.40;4.57;;;23.90;99.90;;;;;;4964835;28;20073;-45
2023/12/11 00:54:03;;;;;;;9.30;4.55;;;23.90;99.90;;;;;;4977758;28;20113;-45
2023/12/11 00:56:29;;;;;;;8.93;4.65;;;23.90;99.90;;;;;;4970127;28;20038;-45
2023/12/11 00:58:55;;;;;;;13.13;4.45;;;23.90;99.90;;;;;;4970643;28;20111;-45
2023/12/11 01:01:21;;;;;;;11.80;4.80;;;23.80;99.90;;;;;;4965846;28;20570;-44
2023/12/11 01:03:47;;;;;;;16.50;4.70;;;23.90;99.90;;;;;;4968336;28;20534;-46
2023/12/11 01:06:13;;;;;;;11.43;4.72;;;23.90;99.90;;;;;;4961181;28;20038;-46
2023/12/11 01:08:39;;;;;;;11.70;4.70;;;23.90;99.90;;;;;;4971338;28;20027;-45
2023/12/11 01:11:05;;;;;;;9.05;4.15;;;23.80;99.90;;;;;;4959509;28;20027;-45
2023/12/11 01:13:31;;;;;;;8.50;4.03;;;23.80;99.90;;;;;;4961915;28;20061;-44
2023/12/11 01:15:57;;;;;;;12.05;4.55;;;23.80;99.90;;;;;;4957007;28;20023;-46
2023/12/11 01:18:24;;;;;;;10.90;4.72;;;23.80;99.90;;;;;;4957874;28;20122;-45
2023/12/11 01:20:50;;;;;;;6.03;4.00;;;23.80;99.90;;;;;;4954692;28;20027;-47
2023/12/11 01:23:17;;;;;;;5.55;3.92;;;23.80;99.90;;;;;;4954620;28;20048;-47
2023/12/11 01:25:42;;;;;;;7.45;3.70;;;23.70;99.90;;;;;;4968997;28;20032;-46
2023/12/11 01:28:08;;;;;;;6.38;3.83;;;23.80;99.90;;;;;;4964269;28;20039;-46
2023/12/11 01:30:35;;;;;;;11.60;4.00;;;23.70;99.90;;;;;;4968613;28;20078;-46
2023/12/11 01:33:04;;;;;;;7.78;3.88;;;23.70;99.90;;;;;;4966981;28;20077;-46
2023/12/11 01:35:33;;;;;;;8.20;4.13;;;23.70;99.90;;;;;;4964878;28;20069;-45
2023/12/11 01:38:00;;;;;;;7.63;4.00;;;23.70;99.90;;;;;;4964384;28;20325;-46
2023/12/11 01:40:26;;;;;;;7.85;3.38;;;23.70;99.90;;;;;;4961763;28;20028;-46
2023/12/11 01:42:52;;;;;;;10.50;3.90;;;23.70;99.90;;;;;;4961246;28;20118;-46
2023/12/11 01:45:17;;;;;;;6.88;3.70;;;23.70;99.90;;;;;;4957368;28;20106;-48
2023/12/11 01:47:43;;;;;;;14.02;3.88;;;23.70;99.90;;;;;;4970847;28;20023;-47
2023/12/11 01:50:09;;;;;;;13.80;4.03;;;23.60;99.90;;;;;;4965011;28;20031;-47
2023/12/11 01:52:37;;;;;;;9.27;3.90;;;23.70;99.90;;;;;;4974359;28;20018;-48
2023/12/11 01:55:06;;;;;;;8.02;4.43;;;23.60;99.90;;;;;;4961465;28;20049;-47
2023/12/11 01:57:33;;;;;;;7.57;3.80;;;23.60;99.90;;;;;;4971915;28;20042;-47
2023/12/11 02:00:00;;;;;;;7.63;4.25;;;23.60;99.90;;;;;;4976537;28;20023;-47
2023/12/11 02:02:25;;;;;;;10.77;3.97;;;23.60;99.90;;;;;;4975968;28;20078;-47
2023/12/11 02:04:53;;;;;;;6.95;3.70;;;23.50;99.90;;;;;;4972036;28;20121;-47
2023/12/11 02:07:19;;;;;;;4.95;3.40;;;23.50;99.90;;;;;;4974096;28;20054;-47
2023/12/11 02:09:45;;;;;;;6.97;3.50;;;23.50;99.90;;;;;;4968270;28;20047;-48
2023/12/11 02:12:11;;;;;;;5.55;3.85;;;23.40;99.90;;;;;;4972664;28;20475;-47
2023/12/11 02:14:37;;;;;;;6.70;3.42;;;23.40;99.90;;;;;;4968891;28;20024;-47
2023/12/11 02:17:03;;;;;;;6.93;3.63;;;23.40;99.90;;;;;;4962161;28;20126;-47
2023/12/11 02:19:28;;;;;;;5.25;3.47;;;23.40;99.90;;;;;;4966466;28;20031;-48
2023/12/11 02:21:55;;;;;;;6.75;3.35;;;23.40;99.90;;;;;;4980094;28;20030;-47
2023/12/11 02:24:30;;;;;;;7.72;3.20;;;23.40;99.90;;;;;;4975024;28;20334;-47
2023/12/11 02:26:56;;;;;;;6.45;3.42;;;23.30;99.90;;;;;;4972954;28;20042;-47
2023/12/11 02:29:23;;;;;;;10.20;3.85;;;23.30;99.90;;;;;;4975600;28;20029;-48
2023/12/11 02:31:48;;;;;;;6.13;3.72;;;23.20;99.90;;;;;;4975590;28;20549;-48
2023/12/11 02:34:14;;;;;;;7.40;3.83;;;23.20;99.90;;;;;;4975908;28;20026;-48
2023/12/11 02:36:40;;;;;;;8.02;4.15;;;23.20;99.90;;;;;;4976155;28;20046;-48
2023/12/11 02:39:06;;;;;;;9.60;3.47;;;23.20;99.90;;;;;;4976385;28;20126;-48
2023/12/11 02:41:31;;;;;;;6.63;3.67;;;23.20;99.90;;;;;;4976280;28;20030;-48
2023/12/11 02:43:58;;;;;;;9.70;3.40;;;23.20;99.90;;;;;;4976281;28;20472;-48
2023/12/11 02:46:24;;;;;;;7.53;3.58;;;23.10;99.90;;;;;;4975903;28;20031;-47
2023/12/11 02:48:50;;;;;;;6.05;3.95;;;23.10;99.90;;;;;;4975001;28;20042;-48
2023/12/11 02:51:16;;;;;;;11.48;4.28;;;23.10;99.90;;;;;;4976144;28;20045;-48
2023/12/11 02:53:42;;;;;;;7.82;3.60;;;23.10;99.90;;;;;;4975834;28;20392;-48
2023/12/11 02:56:08;;;;;;;8.18;3.55;;;23.10;99.90;;;;;;4975959;28;20030;-47
2023/12/11 02:58:34;;;;;;;7.80;3.78;;;23.10;99.90;;;;;;4976079;28;20059;-48
2023/12/11 03:01:00;;;;;;;8.13;3.78;;;23.00;99.90;;;;;;4976505;28;20454;-47
2023/12/11 03:03:26;;;;;;;6.60;3.55;;;23.00;99.90;;;;;;4975802;28;20047;-47
2023/12/11 03:05:52;;;;;;;5.57;3.75;;;23.00;99.90;;;;;;4976068;28;20031;-47
2023/12/11 03:08:17;;;;;;;7.13;2.88;;;23.00;99.90;;;;;;4975850;28;20030;-47
2023/12/11 03:10:43;;;;;;;7.10;3.95;;;23.00;99.90;;;;;;4975542;28;20015;-47
2023/12/11 03:13:09;;;;;;;6.28;3.17;;;23.00;99.90;;;;;;4975865;28;20070;-47
2023/12/11 03:15:35;;;;;;;6.45;3.90;;;23.00;99.90;;;;;;4965598;28;20105;-48
2023/12/11 03:18:00;;;;;;;7.43;4.05;;;23.00;99.90;;;;;;4975780;28;20041;-48
2023/12/11 03:20:26;;;;;;;6.75;3.30;;;22.90;99.90;;;;;;4975869;28;20023;-47
2023/12/11 03:22:52;;;;;;;5.43;3.60;;;22.90;99.90;;;;;;4976005;28;20027;-48
2023/12/11 03:25:18;;;;;;;7.25;3.60;;;22.90;99.90;;;;;;4975278;28;20391;-47
2023/12/11 03:27:44;;;;;;;7.47;3.47;;;22.90;99.90;;;;;;4975564;28;20026;-47
2023/12/11 03:30:09;;;;;;;7.95;3.38;;;22.80;99.90;;;;;;4975550;28;20034;-48
2023/12/11 03:32:36;;;;;;;7.88;3.78;;;22.90;99.90;;;;;;4975527;28;20415;-47
2023/12/11 03:35:03;;;;;;;6.15;3.75;;;22.90;99.90;;;;;;4975299;28;20506;-46
2023/12/11 03:37:29;;;;;;;9.60;3.78;;;22.80;99.90;;;;;;4975296;28;20094;-45
2023/12/11 03:39:54;;;;;;;4.78;3.35;;;22.80;99.90;;;;;;4975773;28;20483;-45
2023/12/11 03:42:21;;;;;;;4.10;3.10;;;22.80;99.90;;;;;;4975146;28;20018;-46
2023/12/11 03:44:47;;;;;;;6.30;3.65;;;22.80;99.90;;;;;;4975148;28;20030;-45
2023/12/11 03:47:12;;;;;;;8.70;3.50;;;22.80;99.90;;;;;;4975199;28;20027;-46
2023/12/11 03:49:38;;;;;;;5.97;3.45;;;22.80;99.90;;;;;;4975305;28;20023;-46
2023/12/11 03:52:04;;;;;;;8.90;3.42;;;22.80;99.90;;;;;;4975058;28;20026;-46
2023/12/11 03:54:30;;;;;;;5.68;3.58;;;22.80;99.90;;;;;;4974741;28;20029;-46
2023/12/11 03:56:56;;;;;;;5.88;3.72;;;22.80;99.90;;;;;;4975235;28;20533;-46
2023/12/11 03:59:22;;;;;;;5.70;3.00;;;22.70;99.90;;;;;;4975119;28;20101;-46
2023/12/11 04:01:48;;;;;;;6.13;3.00;;;22.70;99.90;;;;;;4974008;28;20126;-46
2023/12/11 04:04:14;;;;;;;5.40;3.40;;;22.70;99.90;;;;;;4974756;28;20073;-46
2023/12/11 04:06:40;;;;;;;7.90;3.67;;;22.70;99.90;;;;;;4974834;28;20050;-46
2023/12/11 04:09:06;;;;;;;6.68;3.05;;;22.70;99.90;;;;;;4974964;28;20046;-46
2023/12/11 04:11:32;;;;;;;8.88;3.47;;;22.70;99.90;;;;;;4974743;28;20023;-46
2023/12/11 04:13:58;;;;;;;7.83;3.63;;;22.70;99.90;;;;;;4973828;28;20027;-47
2023/12/11 04:16:24;;;;;;;4.55;3.40;;;22.70;99.90;;;;;;4974484;28;20042;-46
2023/12/11 04:18:50;;;;;;;5.20;3.70;;;22.60;99.90;;;;;;4961287;28;20462;-47
2023/12/11 04:21:15;;;;;;;5.35;3.33;;;22.70;99.90;;;;;;4974650;28;20085;-46
2023/12/11 04:23:41;;;;;;;4.68;3.22;;;22.60;99.90;;;;;;4973415;28;20027;-46
2023/12/11 04:26:07;;;;;;;7.13;3.15;;;22.60;99.90;;;;;;4974626;28;20386;-46
2023/12/11 04:28:33;;;;;;;4.22;2.90;;;22.60;99.90;;;;;;4973002;28;20448;-46
2023/12/11 04:30:58;;;;;;;5.95;3.30;;;22.60;99.90;;;;;;4974731;28;20125;-47
2023/12/11 04:33:24;;;;;;;7.20;3.53;;;22.60;99.90;;;;;;4974266;28;20029;-46
2023/12/11 04:35:50;;;;;;;4.95;3.22;;;22.60;99.90;;;;;;4960969;28;20431;-46
2023/12/11 04:38:16;;;;;;;4.25;3.70;;;22.60;99.90;;;;;;4974094;28;20479;-46
2023/12/11 04:40:41;;;;;;;4.55;3.33;;;22.60;99.90;;;;;;4974133;28;20023;-46
2023/12/11 04:43:07;;;;;;;4.65;3.13;;;22.60;99.90;;;;;;4974161;28;20443;-47
2023/12/11 04:45:33;;;;;;;6.57;3.00;;;22.60;99.90;;;;;;4974069;28;20042;-46
2023/12/11 04:47:59;;;;;;;9.57;3.80;;;22.60;99.90;;;;;;4974332;28;20027;-47
2023/12/11 04:50:25;;;;;;;5.35;3.28;;;22.50;99.90;;;;;;4973937;28;20364;-46
2023/12/11 04:52:50;;;;;;;7.25;3.10;;;22.60;99.90;;;;;;4970905;28;20070;-46
2023/12/11 04:55:16;;;;;;;4.18;2.95;;;22.50;99.90;;;;;;4977584;28;20383;-47
2023/12/11 04:57:42;;;;;;;5.43;3.65;;;22.50;99.90;;;;;;4971066;28;20031;-46
2023/12/11 05:00:08;;;;;;;8.18;3.50;;;22.50;99.90;;;;;;4969186;28;20443;-47
2023/12/11 05:02:34;;;;;;;4.85;3.28;;;22.50;99.90;;;;;;4965649;28;20047;-47
2023/12/11 05:05:00;;;;;;;5.00;2.97;;;22.50;99.90;;;;;;4972058;28;20490;-46
2023/12/11 05:07:26;;;;;;;5.25;3.38;;;22.50;99.90;;;;;;4973650;28;20077;-48
2023/12/11 05:09:51;;;;;;;5.75;3.78;;;22.50;99.90;;;;;;4973643;28;20026;-47
2023/12/11 05:12:17;;;;;;;8.35;3.47;;;22.50;99.90;;;;;;4968063;28;20019;-47
2023/12/11 05:14:43;;;;;;;7.20;3.75;;;22.50;99.90;;;;;;4972699;28;20058;-47
2023/12/11 05:17:09;;;;;;;7.97;3.72;;;22.40;99.90;;;;;;4973588;28;20387;-47
2023/12/11 05:19:35;;;;;;;5.90;3.35;;;22.50;99.90;;;;;;4973434;28;20027;-47
2023/12/11 05:22:02;;;;;;;5.10;3.03;;;22.40;99.90;;;;;;4973352;28;20502;-47
2023/12/11 05:24:27;;;;;;;3.40;2.88;;;22.40;99.90;;;;;;4969054;28;20027;-47
2023/12/11 05:26:56;;;;;;;5.78;3.38;;;22.40;99.90;;;;;;4972846;28;20042;-48
2023/12/11 05:29:22;;;;;;;4.82;3.28;;;22.40;99.90;;;;;;4973551;28;20105;-47
2023/12/11 05:31:48;;;;;;;4.45;3.30;;;22.40;99.90;;;;;;4972980;28;20031;-47
2023/12/11 05:34:14;;;;;;;5.05;3.42;;;22.40;99.90;;;;;;4972525;28;20019;-47
2023/12/11 05:36:41;;;;;;;8.40;3.58;;;22.40;99.90;;;;;;4969467;28;20107;-47
2023/12/11 05:39:07;;;;;;;6.27;3.43;;;22.30;99.90;;;;;;4973266;28;20039;-47
2023/12/11 05:41:33;;;;;;;2.85;2.55;;;22.40;99.90;;;;;;4972797;28;20034;-47
2023/12/11 05:43:59;;;;;;;4.85;2.90;;;22.30;99.90;;;;;;4970520;28;20037;-48
2023/12/11 05:46:25;;;;;;;3.83;2.92;;;22.30;99.90;;;;;;4971912;28;20053;-48
2023/12/11 05:48:51;;;;;;;6.75;3.30;;;22.30;99.90;;;;;;4973108;28;20027;-47
2023/12/11 05:51:16;;;;;;;6.03;3.55;;;22.30;99.90;;;;;;4972709;28;20038;-47
2023/12/11 05:53:42;;;;;;;6.15;3.20;;;22.30;99.90;;;;;;4973004;28;20439;-47
2023/12/11 05:56:08;;;;;;;7.72;3.53;;;22.30;99.90;;;;;;4972632;28;20035;-48
2023/12/11 05:58:34;;;;;;;7.78;3.60;;;22.30;99.90;;;;;;4973331;28;20053;-47
2023/12/11 06:01:00;;;;;;;9.32;3.53;;;22.30;99.90;;;;;;4973159;28;20455;-48
2023/12/11 06:03:26;;;;;;;6.95;3.33;;;22.30;99.90;;;;;;4972220;28;20057;-48
2023/12/11 06:05:57;;;;;;;5.97;3.53;;;22.30;99.90;;;;;;4972988;28;20027;-48
2023/12/11 06:08:24;;;;;;;4.70;3.45;;;22.30;99.90;;;;;;4972876;28;20023;-49
2023/12/11 06:10:50;;;;;;;5.10;2.80;;;22.20;99.90;;;;;;4972939;28;20023;-47
2023/12/11 06:13:16;;;;;;;7.82;3.65;;;22.20;99.90;;;;;;4972749;28;20145;-47
2023/12/11 06:15:42;;;;;;;5.85;2.90;;;22.20;99.90;;;;;;4987880;28;20031;-47
2023/12/11 06:18:08;;;;;;;8.15;3.45;;;22.20;99.90;;;;;;4972898;28;20074;-47
2023/12/11 06:20:34;;;;;;;4.95;3.08;;;22.20;99.90;;;;;;4973057;28;20539;-47
2023/12/11 06:22:59;;;;;;;4.60;3.08;;;22.20;99.90;;;;;;4987939;28;20108;-47
2023/12/11 06:25:25;;;;;;;5.63;3.50;;;22.20;99.90;;;;;;4972889;28;20019;-47
2023/12/11 06:27:51;;;;;;;5.65;3.35;;;22.20;99.90;;;;;;4972539;28;20035;-47
2023/12/11 06:30:17;;;;;;;5.38;3.17;;;22.20;99.90;;;;;;4972512;28;20085;-47
2023/12/11 06:32:43;;;;;;;5.43;3.03;;;22.20;99.90;;;;;;4971359;28;20045;-49
2023/12/11 06:35:09;;;;;;;7.78;3.30;;;22.20;99.90;;;;;;4972735;28;20098;-47
2023/12/11 06:37:35;;;;;;;6.10;3.45;;;22.20;99.90;;;;;;4972722;28;20043;-47
2023/12/11 06:40:03;;;;;;;4.90;3.15;;;22.10;99.90;;;;;;4972715;28;20451;-47
2023/12/11 06:42:32;;;;;;;8.48;3.25;;;22.10;99.90;;;;;;4987326;28;20051;-47
2023/12/11 06:44:59;;;;;;;6.50;3.03;;;22.10;99.90;;;;;;4972631;28;20054;-46
2023/12/11 06:47:25;;;;;;;5.45;3.00;;;22.10;99.90;;;;;;4975567;28;20131;-46
2023/12/11 06:49:52;;;;;;;4.55;2.70;;;22.10;99.90;;;;;;4975978;28;20135;-46
2023/12/11 06:52:18;;;;;;;4.78;2.60;;;22.10;99.90;;;;;;4974642;28;20027;-46
2023/12/11 06:54:44;;;;;;;5.80;3.28;;;22.10;99.90;;;;;;4976186;28;20219;-47
2023/12/11 06:57:10;;;;;;;4.18;2.88;;;22.10;99.90;;;;;;4975698;28;20043;-46
2023/12/11 06:59:35;;;;;;;5.85;3.22;;;22.10;99.90;;;;;;4990900;28;20442;-47
2023/12/11 07:02:02;;;;;;;9.02;3.25;;;22.00;99.90;;;;;;4975920;28;20444;-47
2023/12/11 07:04:28;;;;;;;5.85;3.10;;;22.10;99.90;;;;;;4975554;28;20019;-47
2023/12/11 07:06:54;;;;;;;5.15;3.42;;;22.00;99.90;;;;;;4975383;28;20513;-47
2023/12/11 07:09:20;;;;;;;6.88;3.35;;;22.00;99.90;;;;;;4975758;28;20114;-47
2023/12/11 07:11:45;;;;;;;4.22;3.08;;;22.00;99.90;;;;;;4974909;28;20058;-47
2023/12/11 07:14:11;;;;;;;4.78;3.20;;;22.00;99.90;;;;;;4975134;28;20023;-48
2023/12/11 07:16:37;;;;;;;6.32;3.08;;;22.00;99.90;;;;;;4975245;28;20027;-47
2023/12/11 07:19:04;;;;;;;6.32;3.42;;;21.90;99.90;;;;;;4974682;28;20027;-47
2023/12/11 07:21:30;;;;;;;5.90;3.05;;;22.00;99.90;;;;;;4975750;28;21055;-47
2023/12/11 07:23:56;;;;;;;5.68;3.42;;;22.00;99.90;;;;;;4975263;28;20114;-48
2023/12/11 07:26:21;;;;;;;3.33;3.00;;;22.00;99.90;;;;;;4975695;28;20432;-48
2023/12/11 07:28:47;;;;;;;5.38;2.67;;;22.00;99.90;;;;;;4975096;28;20026;-47
2023/12/11 07:31:13;;;;;;;5.88;3.03;;;21.90;99.90;;;;;;4975150;28;20055;-48
2023/12/11 07:33:39;;;;;;;6.30;3.30;;;21.90;99.90;;;;;;4975606;28;20423;-47
2023/12/11 07:36:05;;;;;;;3.33;2.85;;;21.90;99.90;;;;;;4975486;28;20106;-47
2023/12/11 07:38:31;;;;;;;4.55;3.28;;;21.90;99.90;;;;;;4975287;28;20085;-47
2023/12/11 07:40:57;;;;;;;5.13;2.80;;;22.00;99.90;;;;;;4973837;28;20031;-47
2023/12/11 07:43:23;;;;;;;7.85;4.05;;;22.00;99.90;;;;;;4975037;28;20031;-47
2023/12/11 07:45:49;;;;;;;4.90;3.10;;;22.00;99.90;;;;;;4989856;28;20034;-47
2023/12/11 07:48:15;;;;;;;6.50;3.38;;;22.00;99.90;;;;;;4975219;28;20026;-47
2023/12/11 07:50:41;;;;;;;7.03;3.40;;;22.00;99.90;;;;;;4975000;28;20031;-48
2023/12/11 07:53:06;;;;;;;4.65;2.92;;;22.00;99.90;;;;;;4975203;28;20041;-48
2023/12/11 07:55:35;;;;;;;8.35;3.22;;;22.10;99.90;;;;;;4975129;28;20049;-48
2023/12/11 07:58:01;;;;;;;3.85;2.95;;;22.10;99.90;;;;;;4974931;28;20089;-48
2023/12/11 08:00:26;;;;;;;5.53;3.03;;;22.10;99.90;;;;;;4974890;28;20419;-48
2023/12/11 08:02:52;;;;;;;4.50;2.50;;;22.10;99.90;;;;;;4974692;28;20506;-48
2023/12/11 08:05:18;;;;;;;4.15;2.88;;;22.20;99.90;;;;;;4974857;28;20057;-48
2023/12/11 08:07:44;;;;;;;3.85;2.85;;;22.20;99.90;;;;;;4974540;28;20086;-48
2023/12/11 08:10:11;;;;;;;4.32;2.40;;;22.20;99.90;;;;;;4974903;28;20070;-48
2023/12/11 08:12:37;;;;;;;5.28;2.90;;;22.30;99.90;;;;;;4974773;28;20065;-48
2023/12/11 08:15:03;;;;;;;5.43;3.15;;;22.30;99.90;;;;;;4974542;28;20035;-47
2023/12/11 08:17:29;;;;;;;5.05;3.15;;;22.30;99.90;;;;;;4973378;28;20045;-49
2023/12/11 08:19:55;;;;;;;5.50;2.67;;;22.30;99.90;;;;;;4974468;28;20117;-49
2023/12/11 08:22:21;;;;;;;9.85;3.10;;;22.40;99.90;;;;;;4974747;28;20082;-48
2023/12/11 08:24:47;;;;;;;4.70;2.90;;;22.40;99.90;;;;;;4974449;28;20129;-49
2023/12/11 08:27:13;;;;;;;3.65;2.75;;;22.40;99.90;;;;;;4974248;28;20030;-48
2023/12/11 08:29:39;;;;;;;4.65;2.85;;;22.40;99.90;;;;;;4974373;28;20423;-47
2023/12/11 08:32:05;;;;;;;5.50;3.05;;;22.50;99.90;;;;;;4974228;28;20030;-47
2023/12/11 08:34:31;;;;;;;4.78;2.72;;;22.50;99.90;;;;;;4973869;28;20026;-47
2023/12/11 08:36:57;;;;;;;4.03;3.30;;;22.50;99.90;;;;;;4974078;28;20043;-48
2023/12/11 08:39:23;;;;;;;3.85;2.78;;;22.50;99.90;;;;;;4974249;28;20030;-48
2023/12/11 08:41:50;;;;;;;4.50;2.60;;;22.60;99.90;;;;;;4974261;28;20093;-48
2023/12/11 08:44:16;;;;;;;5.63;3.00;;;22.60;99.90;;;;;;4973617;28;20027;-48
2023/12/11 08:46:43;;;;;;;4.63;3.45;;;22.60;99.90;;;;;;4974137;28;20083;-48
2023/12/11 08:49:10;;;;;;;5.25;3.30;;;22.70;99.90;;;;;;4974047;28;20033;-49
2023/12/11 08:51:36;;;;;;;5.78;3.30;;;22.70;99.90;;;;;;4973705;28;20476;-48
2023/12/11 08:54:02;;;;;;;6.55;2.83;;;22.70;99.90;;;;;;4973718;28;20030;-47
2023/12/11 08:56:28;;;;;;;6.18;2.88;;;22.80;99.90;;;;;;4973528;28;20037;-47
2023/12/11 08:58:53;;;;;;;5.05;2.97;;;22.80;99.90;;;;;;4973823;28;20042;-47
2023/12/11 09:01:19;;;;;;;4.40;2.90;;;22.80;99.90;;;;;;4973447;28;20031;-47
2023/12/11 09:03:46;;;;;;;4.53;2.90;;;22.80;99.90;;;;;;4973887;28;20038;-48
2023/12/11 09:06:15;;;;;;;5.95;3.22;;;22.90;99.90;;;;;;4973939;28;20042;-47
2023/12/11 09:08:41;;;;;;;5.13;2.88;;;22.90;99.90;;;;;;4973501;28;20468;-46
2023/12/11 09:11:07;;;;;;;5.28;3.38;;;23.00;99.90;;;;;;4973443;28;20039;-47
2023/12/11 09:13:33;;;;;;;4.53;2.63;;;23.00;99.90;;;;;;4973568;28;20030;-46
2023/12/11 09:15:59;;;;;;;7.22;3.60;;;23.00;99.90;;;;;;4973594;28;20109;-47
2023/12/11 09:18:24;;;;;;;6.47;3.10;;;23.10;99.90;;;;;;4973403;28;20035;-48
2023/12/11 09:20:51;;;;;;;6.43;3.20;;;23.10;99.90;;;;;;4973214;28;20023;-49
2023/12/11 09:23:16;;;;;;;5.55;3.40;;;23.10;99.90;;;;;;4973098;28;20026;-48
2023/12/11 09:25:42;;;;;;;5.72;3.53;;;23.10;99.90;;;;;;4973578;28;20029;-48
2023/12/11 09:28:08;;;;;;;7.93;3.55;;;23.20;99.90;;;;;;4973185;28;20066;-48
2023/12/11 09:30:34;;;;;;;6.95;3.28;;;23.20;99.90;;;;;;4973076;28;20026;-47
2023/12/11 09:33:00;;;;;;;7.50;3.45;;;23.20;99.90;;;;;;4973319;28;20467;-47
2023/12/11 09:35:26;;;;;;;4.35;3.40;;;23.30;99.90;;;;;;4972848;28;20026;-48
2023/12/11 09:37:51;;;;;;;8.18;4.00;;;23.20;99.90;;;;;;4972698;28;20053;-46
2023/12/11 09:40:18;;;;;;;5.38;3.67;;;23.30;99.90;;;;;;4973086;28;20026;-48
2023/12/11 09:42:45;;;;;;;6.65;3.63;;;23.40;99.90;;;;;;4972856;28;20018;-47
2023/12/11 09:45:13;;;;;;;6.90;3.63;;;23.40;99.90;;;;;;4973288;28;20501;-48
2023/12/11 09:48:04;;;;;;;;;;;23.40;99.90;;;;;;4973357;28;20073;-47
2023/12/11 09:50:30;;;;;;;7.40;3.90;;;23.40;99.90;;;;;;4970946;28;20386;-48
2023/12/11 09:52:56;;;;;;;7.57;3.95;;;23.50;99.90;;;;;;4973121;28;20058;-48
2023/12/11 09:55:22;;;;;;;4.95;3.65;;;23.50;99.90;;;;;;4973276;28;20026;-48
2023/12/11 09:57:49;;;;;;;11.07;4.10;;;23.60;99.90;;;;;;4972833;28;20169;-48
2023/12/11 10:00:15;;;;;;;7.20;4.38;;;23.60;99.90;;;;;;4973354;28;20015;-48
2023/12/11 10:02:46;;;;;;;6.20;4.10;;;23.70;99.90;;;;;;4972916;28;20085;-48
2023/12/11 10:05:22;;;;;;;8.13;4.20;;;23.70;99.90;;;;;;4972954;28;20039;-47
2023/12/11 10:07:47;;;;;;;12.23;3.78;;;23.70;99.90;;;;;;4971929;28;20019;-48
2023/12/11 10:10:26;;;;;;;7.85;4.00;;;23.70;99.90;;;;;;4972628;28;20517;-48
2023/12/11 10:12:55;;;;;;;7.22;3.83;;;23.80;99.90;;;;;;4972722;28;20395;-48
2023/12/11 10:15:32;;;;;;;11.68;3.95;;;23.80;99.90;;;;;;4972329;28;20027;-47
2023/12/11 10:18:11;;;;;;;14.70;4.20;;;23.80;99.90;;;;;;4972436;28;20039;-47
2023/12/11 10:20:39;;;;;;;9.43;3.88;;;23.90;99.90;;;;;;4972861;28;20034;-48
2023/12/11 10:23:12;;;;;;;13.05;3.90;;;24.00;99.90;;;;;;4975641;28;20031;-48
2023/12/11 10:25:41;;;;;;;31.50;4.90;;;24.00;99.90;;;;;;4975637;28;20019;-46
2023/12/11 10:28:11;;;;;;;17.90;4.65;;;24.10;99.90;;;;;;4976544;28;20533;-46
2023/12/11 10:30:53;;;;;;;18.00;4.90;;;24.10;99.90;;;;;;4976086;28;20042;-45
2023/12/11 10:33:20;;;;;;;10.40;5.10;;;24.10;99.90;;;;;;4976677;28;20018;-45
2023/12/11 10:35:46;;;;;;;10.43;5.27;;;24.10;99.90;;;;;;4976473;28;20027;-45
2023/12/11 10:38:27;;;;;;;9.77;4.05;;;24.10;99.90;;;;;;4976298;28;20042;-46
2023/12/11 10:40:55;;;;;;;5.30;3.40;;;24.10;99.90;;;;;;4976416;28;20081;-45
2023/12/11 10:43:21;;;;;;;5.65;3.40;;;24.00;99.90;;;;;;4975695;28;20038;-45
2023/12/11 10:45:47;;;;;;;5.45;3.30;;;24.00;99.90;;;;;;4976041;28;20035;-45
2023/12/11 10:48:13;;;;;;;4.30;2.53;;;24.00;99.90;;;;;;4976039;28;20113;-45
2023/12/11 10:50:38;;;;;;;4.70;3.13;;;24.00;99.90;;;;;;4975537;28;20488;-45
2023/12/11 10:53:04;;;;;;;8.10;3.10;;;24.00;99.90;;;;;;4975408;28;20113;-45
2023/12/11 10:55:32;;;;;;;4.70;3.15;;;24.00;99.90;;;;;;4975964;28;20034;-44
2023/12/11 10:58:01;;;;;;;6.07;3.20;;;24.00;99.90;;;;;;4974975;28;20360;-46
2023/12/11 11:00:30;;;;;;;5.75;2.80;;;24.10;99.90;;;;;;4976146;28;20464;-46
2023/12/11 11:02:58;;;;;;;5.97;2.70;;;24.20;99.90;;;;;;4975916;28;20074;-44
2023/12/11 11:05:28;;;;;;;6.07;2.80;;;24.20;99.90;;;;;;4975737;28;20050;-45
2023/12/11 11:08:20;;;;;;;3.58;3.00;;;24.20;99.90;;;;;;4975972;28;20019;-45
2023/12/11 11:11:06;;;;;;;12.27;3.55;;;24.30;99.90;;;;;;4960654;28;20096;-45
2023/12/11 11:13:59;;;;;;;9.63;3.85;;;24.40;99.90;;;;;;4974735;28;20046;-45
2023/12/11 11:16:54;;;;;;;12.98;3.20;;;24.40;99.90;;;;;;4974808;28;20043;-45
2023/12/11 11:19:21;;;;;;;12.07;3.45;;;24.50;99.90;;;;;;4975628;28;20077;-45
2023/12/11 11:22:04;;;;;;;25.10;2.92;;;24.60;99.90;;;;;;4975640;28;20046;-45
2023/12/11 11:24:32;;;;;;;18.27;3.55;;;24.60;99.90;;;;;;4975564;28;20022;-45
2023/12/11 11:26:59;;;;;;;11.77;3.40;;;24.70;99.90;;;;;;4975379;28;20419;-47
2023/12/11 11:29:41;;;;;;;9.47;3.63;;;24.70;99.90;;;;;;4972061;28;20034;-46
2023/12/11 11:32:08;;;;;;;28.30;4.78;;;24.70;99.90;;;;;;4968050;28;20257;-46
2023/12/11 11:34:40;;;;;;;15.52;3.72;;;24.80;99.90;;;;;;4973307;28;20467;-47
2023/12/11 11:37:06;;;;;;;14.68;3.88;;;24.80;99.90;;;;;;4972758;28;20162;-46
2023/12/11 11:39:58;;;;;;;14.20;3.40;;;24.90;99.90;;;;;;4973405;28;20495;-47
2023/12/11 11:42:25;;;;;;;15.38;4.25;;;25.00;99.90;;;;;;4972178;28;20072;-46
2023/12/11 11:45:01;;;;;;;10.90;3.72;;;25.00;99.90;;;;;;4973399;28;20487;-47
2023/12/11 11:47:27;;;;;;;15.60;3.53;;;25.00;99.90;;;;;;4971271;28;20031;-46
2023/12/11 11:49:54;;;;;;;12.27;3.25;;;25.10;99.90;;;;;;4974855;28;20026;-46
2023/12/11 11:52:28;;;;;;;6.63;3.13;;;25.10;99.90;;;;;;4974581;28;20438;-46
2023/12/11 11:55:26;;;;;;;12.15;3.42;;;25.10;99.90;;;;;;4974233;28;20023;-47
2023/12/11 11:57:52;;;;;;;7.53;3.15;;;25.20;99.90;;;;;;4974991;28;20030;-46
2023/12/11 12:00:22;;;;;;;10.53;3.80;;;25.20;99.90;;;;;;4975148;28;20015;-47
2023/12/11 12:02:59;;;;;;;9.70;3.05;;;25.30;99.90;;;;;;4974785;28;20276;-47
2023/12/11 12:05:26;;;;;;;7.07;3.15;;;25.30;99.90;;;;;;4974959;28;20027;-47
2023/12/11 12:07:52;;;;;;;5.70;2.88;;;25.30;99.90;;;;;;4974945;28;20027;-46
2023/12/11 12:10:19;;;;;;;14.60;4.07;;;25.30;99.90;;;;;;4974785;28;20034;-47
2023/12/11 12:12:50;;;;;;;14.15;3.63;;;25.30;99.90;;;;;;4974951;28;20027;-47
2023/12/11 12:15:17;;;;;;;8.98;3.08;;;25.40;99.90;;;;;;4974757;28;20019;-47
2023/12/11 12:17:45;;;;;;;11.40;3.50;;;25.40;99.90;;;;;;4974781;28;20424;-47
2023/12/11 12:20:17;;;;;;;13.10;4.07;;;25.30;99.90;;;;;;4989439;28;20073;-47
2023/12/11 12:22:58;;;;;;;6.72;3.58;;;25.40;99.90;;;;;;4974649;28;20428;-47
2023/12/11 12:25:24;;;;;;;9.20;3.33;;;25.40;99.90;;;;;;4974631;28;20480;-46
2023/12/11 12:27:54;;;;;;;6.43;3.03;;;25.40;99.90;;;;;;4974731;28;20027;-47
2023/12/11 12:30:20;;;;;;;9.13;3.63;;;25.40;99.90;;;;;;4973172;28;20506;-46
2023/12/11 12:32:48;;;;;;;9.23;3.72;;;25.40;99.90;;;;;;4974556;28;20034;-47
2023/12/11 12:35:16;;;;;;;8.55;3.83;;;25.40;99.90;;;;;;4974302;28;20114;-47
2023/12/11 12:37:42;;;;;;;;;;;25.40;99.90;;;;;;4974620;28;20403;-47
2023/12/11 12:40:09;;;;;;;12.02;3.72;;;25.40;99.90;;;;;;4974278;28;20001;-47
2023/12/11 12:42:35;;;;;;;8.93;3.50;;;25.40;99.90;;;;;;4974141;28;20089;-47
2023/12/11 12:45:01;;;;;;;6.82;3.58;;;25.50;99.90;;;;;;4973424;28;20030;-47